Airfield :
LOGIN :

Register | Disclaimer

   EN    FR    IT 

 










Legend :    VFR   Marginal VFR   IFR   Intensive IFR   Very Intensive IFR
Visi :
Ceiling :
>= 8 km
>= 3000ft
5 to 8 km
1000 to 3000 ft
1500m to 5 km
500 to 1000 ft
800 to 1500m
200 to 500 ft
< 800m
< 200 ft
Symbols :   Thunderstorms  Fog  Heavy snow  Heavy precipitations  Wind > 20 kt
SIGMETs :     Misc.  Thunderstorms  Icing  Turbulence  Mountain Waves  Volcanic Ashes







- Airport Elevation : 370 ft


EBBE - Beauvechain AB

CURRENT METAR :
  • 191055Z AUTO 34006KT 4900 BR SCT011/// BKN014/// BKN017/// 16/13 Q1006 GRN

EXPIRED METARs :
  • 191045Z AUTO 34005KT 4700 BR BKN011/// BKN015/// 16/13 Q1006 GRN
  • 191034Z AUTO 36005KT 3600 BR BKN010/// BKN014/// 16/13 Q1006 YLO
  • 191003Z AUTO 35008KT 3500 BR BKN009/// OVC011/// 15/13 Q1006 YLO
  • 190955Z AUTO 35008KT 3900 BR BKN009/// BKN012/// 15/13 Q1006 GRN
  • 190925Z AUTO 32006KT 3300 BR FEW006/// BKN008/// BKN010/// 15/13 Q1006 YLO
  • 190855Z AUTO 32007KT 2700 BR BKN006/// 14/13 Q1006 YLO
  • 190825Z AUTO 30006KT 2400 BR BKN005/// BKN060/// 14/13 Q1006 YLO

Expired Forecast.
No reported NOTAMs for that airfield.



MET'MAP, your aeronautical weather chart ! - Copyright ORBIFLY December 2007 - Disclaimer

ORBIFLY MET'MAP TEAM :

Programming & Development : Alexandra Zaïnal
Concept & Development : Baudouin d'Aumeries
Co-Development & Prog : Marc-Olivier Méhu
Technical & hardware support : Manuel Goepfert

Contact : metmap@orbifly.com




SOURCES & CREDITS :

   NOAA